Time;durP1;ratioP1;P1;durP2;ratioP2;P2;SDS_P1;SDS_P2;PMS_P1;PMS_P2;Temp;Humidity;BMP_temperature;BMP_pressure;BME280_temperature;BME280_humidity;BME280_pressure;Samples;Min_cycle;Max_cycle;Signal;HPM_P1;HPM_P2
2021/07/06 00:01:20;;;;;;;10.40;5.83;;;;;;;19.86;89.00;100114.07;1861084;76;21138;-64
2021/07/06 00:03:48;;;;;;;10.43;5.37;;;;;;;19.87;88.81;100114.44;1861087;77;21075;-64
2021/07/06 00:06:18;;;;;;;8.78;4.60;;;;;;;19.90;88.67;100110.17;1861129;77;21117;-64
2021/07/06 00:08:46;;;;;;;8.05;4.28;;;;;;;19.90;88.43;100115.52;1861089;77;21471;-64
2021/07/06 00:11:15;;;;;;;8.55;4.33;;;;;;;19.89;88.08;100118.31;1861099;77;21115;-64
2021/07/06 00:13:44;;;;;;;7.78;4.75;;;;;;;19.84;87.56;100110.70;1860948;77;21059;-64
2021/07/06 00:16:13;;;;;;;5.70;3.55;;;;;;;19.80;87.19;100108.78;1861120;77;21060;-64
2021/07/06 00:18:43;;;;;;;6.92;4.15;;;;;;;19.78;87.23;100111.24;1861097;77;21142;-64
2021/07/06 00:21:12;;;;;;;8.20;4.30;;;;;;;19.75;87.23;100127.52;1861142;76;21584;-64
2021/07/06 00:23:41;;;;;;;9.20;4.33;;;;;;;19.71;87.36;100122.07;1861111;77;21584;-64
2021/07/06 00:26:10;;;;;;;12.20;4.70;;;;;;;19.68;87.50;100128.05;1861005;77;21560;-65
2021/07/06 00:28:38;;;;;;;10.30;5.30;;;;;;;19.68;87.78;100128.54;1861098;77;21138;-64
2021/07/06 00:31:07;;;;;;;8.50;5.10;;;;;;;19.68;87.82;100130.71;1861123;77;21133;-64
2021/07/06 00:33:36;;;;;;;9.68;5.65;;;;;;;19.71;87.95;100126.92;1861244;77;21110;-64
2021/07/06 00:36:05;;;;;;;10.08;6.00;;;;;;;19.74;88.07;100124.52;1861146;77;21146;-64
2021/07/06 00:38:34;;;;;;;12.90;6.80;;;;;;;19.76;88.10;100126.56;1860988;77;21118;-65
2021/07/06 00:41:03;;;;;;;12.65;6.47;;;;;;;19.74;88.10;100127.19;1861077;77;21173;-64
2021/07/06 00:43:36;;;;;;;13.25;6.35;;;;;;;19.72;88.19;100130.45;1861089;77;21569;-64
2021/07/06 00:46:02;;;;;;;11.57;6.08;;;;;;;19.72;88.23;100126.45;1860972;77;21048;-64
2021/07/06 00:48:31;;;;;;;11.88;6.17;;;;;;;19.68;88.35;100138.73;1861089;77;21063;-64
2021/07/06 00:53:51;;;;;;;11.15;5.55;;;;;;;19.65;88.35;100144.32;1844519;77;21120;-62
2021/07/06 00:56:21;;;;;;;14.00;6.08;;;;;;;19.67;88.30;100148.20;1844600;77;21037;-61
2021/07/06 00:58:50;;;;;;;12.63;6.72;;;;;;;19.67;88.28;100151.70;1844656;78;21045;-62
2021/07/06 01:01:18;;;;;;;9.10;6.53;;;;;;;19.71;88.17;100160.80;1844585;78;21446;-62
2021/07/06 01:03:48;;;;;;;11.50;7.17;;;;;;;19.70;88.14;100151.95;1844539;78;21472;-62
2021/07/06 01:06:16;;;;;;;13.08;6.97;;;;;;;19.73;88.03;100153.53;1844781;78;21512;-62
2021/07/06 01:08:46;;;;;;;12.93;7.33;;;;;;;19.73;87.82;100161.54;1844720;78;21489;-62
2021/07/06 01:11:17;;;;;;;14.60;8.08;;;;;;;19.73;87.77;100166.88;1844627;78;21531;-62
2021/07/06 01:13:46;;;;;;;10.75;6.87;;;;;;;19.72;87.72;100163.84;1844583;78;21543;-61
2021/07/06 01:16:15;;;;;;;12.03;6.87;;;;;;;19.71;87.71;100172.82;1844608;77;21074;-61
2021/07/06 01:18:45;;;;;;;14.00;6.28;;;;;;;19.73;87.63;100174.89;1844712;78;21062;-61
2021/07/06 01:21:14;;;;;;;8.30;5.60;;;;;;;19.72;87.47;100168.69;1844734;77;21574;-62
2021/07/06 01:23:42;;;;;;;14.35;6.60;;;;;;;19.73;87.44;100168.22;1844632;78;21078;-62
2021/07/06 01:26:11;;;;;;;13.38;6.65;;;;;;;19.72;87.47;100167.34;1844606;78;21136;-61
2021/07/06 01:28:41;;;;;;;10.15;6.12;;;;;;;19.70;87.48;100165.30;1844680;78;21128;-62
2021/07/06 01:31:10;;;;;;;9.18;5.00;;;;;;;19.66;87.55;100168.73;1844759;78;21116;-61
2021/07/06 01:33:39;;;;;;;9.33;5.60;;;;;;;19.66;87.60;100177.20;1844635;78;21050;-62
2021/07/06 01:36:08;;;;;;;13.13;5.25;;;;;;;19.67;87.46;100177.08;1844541;78;21136;-64
2021/07/06 01:38:39;;;;;;;10.72;6.12;;;;;;;19.70;87.41;100175.12;1844576;77;21062;-62
2021/07/06 01:41:07;;;;;;;11.43;5.85;;;;;;;19.68;87.43;100170.77;1844463;77;21018;-63
2021/07/06 01:43:36;;;;;;;7.42;4.72;;;;;;;19.68;87.24;100176.61;1844563;78;21078;-62
2021/07/06 01:46:05;;;;;;;8.13;5.37;;;;;;;19.68;87.16;100178.78;1844603;78;21140;-63
2021/07/06 01:48:33;;;;;;;14.63;5.87;;;;;;;19.70;86.94;100185.80;1844624;78;21042;-62
2021/07/06 01:51:23;;;;;;;12.00;5.83;;;;;;;19.71;86.85;100192.84;1844614;78;21140;-62
2021/07/06 01:53:52;;;;;;;11.03;5.37;;;;;;;19.72;86.83;100189.22;1812522;79;21136;-62
2021/07/06 01:56:20;;;;;;;12.00;5.90;;;;;;;19.71;86.79;100190.18;1812638;79;21136;-63
2021/07/06 01:58:49;;;;;;;11.97;5.45;;;;;;;19.69;86.71;100182.30;1812592;79;21146;-63
2021/07/06 02:01:18;;;;;;;10.10;5.42;;;;;;;19.68;86.61;100186.80;1812561;79;21512;-63
2021/07/06 02:03:51;;;;;;;10.93;5.45;;;;;;;19.70;86.62;100175.12;1812609;79;21136;-63
2021/07/06 02:06:20;;;;;;;9.05;5.90;;;;;;;19.71;86.52;100182.16;1812492;79;21046;-63
2021/07/06 02:08:49;;;;;;;8.60;5.45;;;;;;;19.70;86.43;100179.99;1812710;79;21054;-63
2021/07/06 02:11:17;;;;;;;13.53;5.67;;;;;;;19.70;86.22;100188.01;1812595;79;21132;-63
2021/07/06 02:13:47;;;;;;;8.85;5.75;;;;;;;19.72;86.15;100191.89;1812625;79;21062;-63
2021/07/06 02:16:15;;;;;;;12.33;5.47;;;;;;;19.72;86.08;100183.88;1812588;79;21513;-63
2021/07/06 02:18:44;;;;;;;8.90;5.30;;;;;;;19.76;85.83;100191.50;1812516;79;21151;-63
2021/07/06 02:21:13;;;;;;;7.62;4.92;;;;;;;19.78;85.67;100190.88;1812590;79;21520;-63
2021/07/06 02:23:42;;;;;;;8.25;5.33;;;;;;;19.79;85.54;100191.72;1812830;79;21550;-63
2021/07/06 02:26:11;;;;;;;8.90;5.42;;;;;;;19.84;84.96;100188.16;1812811;79;21133;-63
2021/07/06 02:28:41;;;;;;;9.50;5.37;;;;;;;19.90;84.93;100198.34;1812588;79;21094;-62
2021/07/06 02:31:10;;;;;;;9.05;5.35;;;;;;;19.91;84.94;100197.84;1812553;79;21575;-62
2021/07/06 02:33:38;;;;;;;14.78;5.60;;;;;;;19.94;84.80;100202.42;1813139;79;21147;-63
2021/07/06 02:36:08;;;;;;;9.63;5.30;;;;;;;19.97;84.51;100203.48;1813265;79;21063;-63
2021/07/06 02:38:39;;;;;;;10.82;5.37;;;;;;;20.03;84.36;100208.30;1813063;79;21122;-62
2021/07/06 02:41:08;;;;;;;9.95;5.53;;;;;;;20.09;83.95;100199.41;1812707;79;21512;-63
2021/07/06 02:43:38;;;;;;;10.78;5.78;;;;;;;20.13;83.83;100190.13;1812768;79;21524;-63
2021/07/06 02:46:07;;;;;;;8.18;5.58;;;;;;;20.16;83.46;100200.06;1812508;78;21125;-63
2021/07/06 02:48:38;;;;;;;8.35;5.42;;;;;;;20.20;83.34;100207.32;1812694;79;21493;-63
2021/07/06 02:51:07;;;;;;;8.83;5.22;;;;;;;20.25;83.10;100206.40;1812721;79;21054;-62
2021/07/06 02:53:35;;;;;;;7.45;4.85;;;;;;;20.28;83.00;100206.64;1809331;79;21160;-63
2021/07/06 02:56:05;;;;;;;8.78;5.17;;;;;;;20.29;82.91;100211.86;1804644;79;21113;-62
2021/07/06 02:58:33;;;;;;;9.98;5.62;;;;;;;20.37;82.99;100215.19;1804590;79;21514;-63
2021/07/06 03:01:02;;;;;;;11.25;5.42;;;;;;;20.48;82.47;100216.41;1804590;79;21098;-63
2021/07/06 03:03:31;;;;;;;7.80;5.10;;;;;;;20.53;82.35;100222.20;1804702;79;21128;-62
2021/07/06 03:06:00;;;;;;;10.25;5.97;;;;;;;20.56;82.22;100221.06;1804595;79;21125;-62
2021/07/06 03:08:33;;;;;;;13.22;5.08;;;;;;;20.68;82.37;100222.69;1804683;79;21116;-62
2021/07/06 03:11:02;;;;;;;12.75;5.12;;;;;;;20.75;82.23;100228.31;1804672;79;21078;-63
2021/07/06 03:13:31;;;;;;;10.68;4.87;;;;;;;20.75;82.09;100237.20;1804601;78;21058;-62
2021/07/06 03:16:00;;;;;;;9.83;5.05;;;;;;;20.71;81.96;100241.14;1804659;79;21054;-62
2021/07/06 03:18:29;;;;;;;14.15;5.75;;;;;;;20.70;82.12;100248.80;1804670;79;21042;-62
2021/07/06 03:20:58;;;;;;;7.70;5.53;;;;;;;20.74;82.10;100243.52;1804551;79;21144;-62
2021/07/06 03:23:28;;;;;;;8.48;4.30;;;;;;;20.85;82.11;100243.90;1804490;79;21062;-62
2021/07/06 03:25:57;;;;;;;7.70;4.35;;;;;;;21.02;82.36;100247.72;1804613;79;21488;-63
2021/07/06 03:28:26;;;;;;;11.15;4.75;;;;;;;21.18;82.37;100248.02;1804763;79;21117;-62
2021/07/06 03:30:54;;;;;;;10.48;5.05;;;;;;;21.31;81.68;100242.88;1804587;79;21126;-61
2021/07/06 03:33:23;;;;;;;8.85;4.78;;;;;;;21.42;81.73;100240.05;1804652;79;21165;-62
2021/07/06 03:35:52;;;;;;;10.05;5.12;;;;;;;21.48;81.34;100244.86;1804469;78;21090;-62
2021/07/06 03:38:21;;;;;;;8.43;4.62;;;;;;;21.49;81.06;100239.87;1804653;79;21046;-62
2021/07/06 03:40:50;;;;;;;11.38;4.97;;;;;;;21.49;80.65;100243.05;1804608;79;21077;-62
2021/07/06 03:43:18;;;;;;;9.95;4.78;;;;;;;21.47;79.77;100240.51;1804629;79;21140;-62
2021/07/06 03:45:47;;;;;;;10.53;5.70;;;;;;;21.46;79.83;100232.11;1804836;79;21537;-62
2021/07/06 03:48:16;;;;;;;7.78;5.10;;;;;;;21.46;79.50;100238.80;1804626;79;21059;-62
2021/07/06 03:50:45;;;;;;;11.88;5.22;;;;;;;21.54;79.57;100238.95;1804592;79;21086;-62
2021/07/06 03:53:14;;;;;;;9.85;5.42;;;;;;;21.67;79.10;100236.44;1805409;78;21078;-61
2021/07/06 03:55:43;;;;;;;9.43;5.67;;;;;;;21.81;79.07;100226.62;1812665;78;21050;-61
2021/07/06 03:58:11;;;;;;;10.00;5.10;;;;;;;21.92;78.65;100234.48;1812589;79;21539;-61
2021/07/06 04:00:40;;;;;;;8.25;5.15;;;;;;;21.98;78.11;100233.92;1821984;79;21070;-61
2021/07/06 04:03:09;;;;;;;5.97;4.08;;;;;;;22.12;77.94;100226.38;1812458;78;21438;-61
2021/07/06 04:05:38;;;;;;;12.68;5.35;;;;;;;22.29;77.32;100228.30;1812572;79;21090;-61
2021/07/06 04:08:07;;;;;;;10.88;6.05;;;;;;;22.47;76.36;100227.53;1812662;79;21061;-61
2021/07/06 04:10:36;;;;;;;8.10;5.08;;;;;;;22.61;75.96;100228.84;1812581;79;21105;-61
2021/07/06 04:13:05;;;;;;;10.23;5.37;;;;;;;22.70;75.83;100222.58;1812607;79;21511;-61
2021/07/06 04:15:34;;;;;;;9.53;4.90;;;;;;;22.78;75.51;100223.16;1812463;79;21501;-62
2021/07/06 04:18:02;;;;;;;7.72;4.75;;;;;;;22.95;75.67;100226.37;1812570;79;21077;-62
2021/07/06 04:20:33;;;;;;;10.23;5.03;;;;;;;23.12;75.27;100217.48;1812560;79;21136;-61
2021/07/06 04:23:02;;;;;;;10.53;6.12;;;;;;;23.23;74.64;100227.16;1812588;78;21112;-61
2021/07/06 04:25:31;;;;;;;9.30;4.87;;;;;;;23.35;73.79;100211.66;1812544;79;21121;-61
2021/07/06 04:28:00;;;;;;;8.10;4.45;;;;;;;23.54;73.75;100224.05;1823940;79;21488;-62
2021/07/06 04:30:29;;;;;;;10.43;5.50;;;;;;;23.69;73.54;100217.09;1815175;78;21129;-61
2021/07/06 04:32:58;;;;;;;10.03;5.03;;;;;;;23.89;73.08;100215.07;1812563;79;21058;-61
2021/07/06 04:35:27;;;;;;;11.05;5.72;;;;;;;24.09;72.17;100228.30;1812565;79;21077;-61
2021/07/06 04:37:55;;;;;;;9.13;5.35;;;;;;;24.27;71.58;100241.17;1812583;79;21129;-61
2021/07/06 04:40:24;;;;;;;11.22;5.08;;;;;;;24.56;71.11;100247.19;1812524;79;21074;-62
2021/07/06 04:42:55;;;;;;;8.83;5.28;;;;;;;24.72;69.70;100247.76;1812541;79;21608;-61
2021/07/06 04:45:24;;;;;;;8.30;5.37;;;;;;;24.56;69.64;100253.41;1812544;79;21136;-62
2021/07/06 04:47:52;;;;;;;10.98;5.37;;;;;;;24.28;69.43;100252.25;1812553;79;21492;-61
2021/07/06 04:50:21;;;;;;;11.48;6.35;;;;;;;24.02;69.64;100248.25;1812554;79;21082;-61
2021/07/06 04:52:51;;;;;;;9.20;6.03;;;;;;;23.92;69.92;100257.42;1812537;79;21074;-61
2021/07/06 04:55:21;;;;;;;9.85;6.25;;;;;;;23.94;70.22;100250.04;1814658;78;21165;-62
2021/07/06 04:57:49;;;;;;;10.68;6.35;;;;;;;24.22;69.58;100263.66;1815390;79;21494;-61
2021/07/06 05:00:19;;;;;;;10.55;5.67;;;;;;;24.44;69.43;100266.80;1813978;79;21087;-61
2021/07/06 05:02:49;;;;;;;10.08;5.20;;;;;;;24.58;69.20;100271.58;1804676;79;21032;-61
2021/07/06 05:05:18;;;;;;;10.95;5.50;;;;;;;24.55;68.82;100274.62;1804700;79;21028;-62
2021/07/06 05:07:47;;;;;;;9.18;5.50;;;;;;;24.71;68.52;100270.28;1804568;79;21463;-64
2021/07/06 05:10:17;;;;;;;12.73;5.65;;;;;;;24.75;67.98;100270.29;1804767;79;21080;-61
2021/07/06 05:12:45;;;;;;;12.03;5.00;;;;;;;24.71;67.11;100272.98;1804678;79;21088;-62
2021/07/06 05:15:14;;;;;;;10.28;5.25;;;;;;;24.70;66.64;100269.93;1804684;79;21076;-62
2021/07/06 05:17:43;;;;;;;8.73;5.50;;;;;;;25.04;67.32;100269.35;1804667;79;21072;-61
2021/07/06 05:20:12;;;;;;;9.13;5.53;;;;;;;25.43;66.08;100273.30;1804457;79;21096;-62
2021/07/06 05:22:41;;;;;;;9.20;4.90;;;;;;;25.63;63.58;100279.20;1804622;79;21032;-61
2021/07/06 05:25:11;;;;;;;11.05;5.50;;;;;;;25.78;63.30;100272.13;1804735;79;21118;-61
2021/07/06 05:27:39;;;;;;;7.22;4.42;;;;;;;26.00;62.60;100280.53;1804705;79;21065;-62
2021/07/06 05:30:09;;;;;;;8.10;5.20;;;;;;;26.18;62.06;100275.77;1804562;79;21134;-61
2021/07/06 05:32:39;;;;;;;10.80;5.10;;;;;;;26.39;61.38;100275.70;1804566;79;21040;-63
2021/07/06 05:35:09;;;;;;;6.92;5.12;;;;;;;26.63;61.26;100271.25;1804541;79;21455;-62
2021/07/06 05:37:39;;;;;;;6.70;4.30;;;;;;;26.41;60.07;100264.22;1804627;79;21064;-62
2021/07/06 05:40:10;;;;;;;7.15;4.70;;;;;;;26.11;61.10;100286.08;1804518;79;21064;-62
2021/07/06 05:42:40;;;;;;;7.25;4.60;;;;;;;26.19;61.40;100280.17;1804545;79;21084;-62
2021/07/06 05:45:09;;;;;;;7.25;4.60;;;;;;;26.37;61.27;100271.85;1804696;79;21145;-62
2021/07/06 05:47:40;;;;;;;8.60;4.75;;;;;;;26.63;60.75;100284.75;1804688;79;21068;-62
2021/07/06 05:50:11;;;;;;;7.87;4.85;;;;;;;26.79;59.90;100272.52;1804695;79;21060;-62
2021/07/06 05:52:40;;;;;;;8.65;6.03;;;;;;;26.92;59.52;100291.69;1805000;78;21092;-62
2021/07/06 05:55:10;;;;;;;9.48;5.08;;;;;;;26.76;59.00;100279.13;1806900;79;21556;-62
2021/07/06 05:57:43;;;;;;;11.83;5.25;;;;;;;26.96;59.03;100285.42;1809948;79;21062;-63
2021/07/06 06:00:12;;;;;;;8.50;4.35;;;;;;;27.17;58.09;100276.69;1813110;79;21144;-62
2021/07/06 06:02:40;;;;;;;8.28;4.67;;;;;;;27.39;58.26;100283.64;1815123;79;21058;-62
2021/07/06 06:05:10;;;;;;;9.18;5.58;;;;;;;27.64;57.81;100287.83;1815190;79;21477;-62
2021/07/06 06:07:40;;;;;;;10.70;6.90;;;;;;;27.81;57.85;100281.75;1815198;79;21125;-62
2021/07/06 06:10:11;;;;;;;10.60;5.25;;;;;;;27.60;57.58;100287.87;1815183;79;21050;-63
2021/07/06 06:12:41;;;;;;;9.98;6.35;;;;;;;27.69;57.71;100284.59;1815264;78;21050;-62
2021/07/06 06:15:11;;;;;;;10.13;5.58;;;;;;;27.53;56.39;100281.51;1815237;79;21128;-63
2021/07/06 06:17:42;;;;;;;9.13;5.35;;;;;;;27.56;56.89;100300.08;1815146;79;21508;-62
2021/07/06 06:20:11;;;;;;;12.10;5.47;;;;;;;27.71;57.18;100286.08;1815210;79;21030;-62
2021/07/06 06:22:40;;;;;;;7.65;4.75;;;;;;;27.54;56.45;100289.96;1815152;79;21091;-62
2021/07/06 06:25:10;;;;;;;8.98;5.08;;;;;;;27.36;57.82;100290.78;1815161;79;21050;-62
2021/07/06 06:27:40;;;;;;;6.70;3.65;;;;;;;27.73;57.34;100291.31;1815164;79;21050;-62
2021/07/06 06:30:10;;;;;;;10.48;5.17;;;;;;;27.40;57.05;100298.33;1815274;79;21496;-62
2021/07/06 06:32:39;;;;;;;10.82;5.75;;;;;;;26.94;57.57;100293.70;1815172;79;21120;-62
2021/07/06 06:35:09;;;;;;;7.20;4.15;;;;;;;26.95;58.49;100296.75;1815114;79;21074;-63
2021/07/06 06:37:38;;;;;;;9.45;4.85;;;;;;;27.26;57.57;100298.63;1815179;79;21034;-62
2021/07/06 06:40:09;;;;;;;12.88;5.33;;;;;;;27.48;57.25;100312.30;1815166;79;21465;-62
2021/07/06 06:42:39;;;;;;;8.90;5.72;;;;;;;27.73;55.97;100313.78;1815134;79;21058;-62
2021/07/06 06:45:10;;;;;;;7.58;4.62;;;;;;;27.83;53.83;100308.14;1815159;79;21509;-62
2021/07/06 06:47:39;;;;;;;10.95;4.28;;;;;;;28.06;55.17;100302.69;1815091;78;21042;-62
2021/07/06 06:50:10;;;;;;;8.68;4.75;;;;;;;28.44;54.23;100306.68;1815256;79;21046;-62
2021/07/06 06:52:39;;;;;;;7.30;4.67;;;;;;;28.41;52.56;100309.75;1815256;79;21058;-62
2021/07/06 06:55:09;;;;;;;8.50;4.83;;;;;;;28.60;52.67;100325.97;1815050;79;21122;-62
2021/07/06 06:57:37;;;;;;;11.25;5.37;;;;;;;28.62;51.94;100317.66;1815102;78;21115;-62
2021/07/06 07:00:08;;;;;;;10.32;5.55;;;;;;;28.58;52.23;100316.36;1815127;79;21183;-62
2021/07/06 07:02:43;;;;;;;9.15;4.70;;;;;;;28.64;53.02;100318.30;1815041;79;21046;-62
2021/07/06 07:05:08;;;;;;;8.75;3.65;;;;;;;28.78;52.06;100307.97;1814854;79;21137;-62
2021/07/06 07:07:37;;;;;;;5.50;3.67;;;;;;;28.85;50.34;100317.02;1813567;79;21152;-62
2021/07/06 07:10:08;;;;;;;7.05;4.80;;;;;;;28.94;50.41;100333.16;1808420;79;21093;-61
2021/07/06 07:12:39;;;;;;;9.33;4.40;;;;;;;28.88;49.23;100336.98;1808302;79;21481;-62
2021/07/06 07:15:12;;;;;;;7.33;4.08;;;;;;;28.77;49.93;100315.76;1819715;79;21084;-61
2021/07/06 07:17:41;;;;;;;8.90;4.97;;;;;;;28.83;49.79;100332.63;1810453;79;21037;-62
2021/07/06 07:20:11;;;;;;;8.15;4.37;;;;;;;29.04;49.78;100319.63;1808319;79;21054;-62
2021/07/06 07:22:42;;;;;;;7.45;3.87;;;;;;;29.17;49.04;100329.81;1808289;79;21046;-61
2021/07/06 07:25:12;;;;;;;6.95;4.20;;;;;;;29.36;49.27;100343.25;1808392;79;21042;-61
2021/07/06 07:27:41;;;;;;;5.90;4.25;;;;;;;29.43;49.13;100342.81;1808381;79;21424;-61
2021/07/06 07:30:12;;;;;;;7.08;4.05;;;;;;;29.52;48.74;100347.59;1808448;79;21139;-61
2021/07/06 07:32:41;;;;;;;7.03;4.15;;;;;;;29.26;48.73;100346.29;1808337;79;21029;-62
2021/07/06 07:35:11;;;;;;;5.53;4.55;;;;;;;29.02;49.26;100354.74;1808309;79;21500;-61
2021/07/06 07:37:41;;;;;;;6.70;4.35;;;;;;;28.74;50.00;100349.19;1808382;79;21034;-62
2021/07/06 07:40:11;;;;;;;8.45;4.30;;;;;;;28.67;50.36;100350.45;1808348;78;21456;-61
2021/07/06 07:42:39;;;;;;;8.85;4.70;;;;;;;28.74;50.13;100348.67;1808410;79;21135;-61
2021/07/06 07:45:09;;;;;;;8.55;4.10;;;;;;;29.10;50.00;100351.91;1808392;79;21045;-61
2021/07/06 07:47:38;;;;;;;7.10;4.28;;;;;;;29.26;49.39;100344.94;1808330;79;21116;-61
2021/07/06 07:50:08;;;;;;;5.30;3.95;;;;;;;29.10;48.60;100354.62;1808318;79;21058;-61
2021/07/06 07:52:36;;;;;;;8.90;5.72;;;;;;;29.07;49.46;100355.85;1806148;79;21078;-61
2021/07/06 07:55:08;;;;;;;6.17;4.03;;;;;;;29.24;49.77;100351.59;1808514;79;21823;-61
2021/07/06 07:57:36;;;;;;;5.80;4.08;;;;;;;29.18;48.86;100357.76;1808261;79;21137;-61
2021/07/06 08:00:08;;;;;;;5.47;3.50;;;;;;;29.59;48.65;100359.36;1808373;79;21041;-61
2021/07/06 08:02:38;;;;;;;6.72;5.00;;;;;;;29.87;47.31;100362.66;1808583;79;21106;-63
2021/07/06 08:05:07;;;;;;;7.25;4.42;;;;;;;29.74;46.24;100353.89;1808448;79;21037;-61
2021/07/06 08:07:36;;;;;;;11.22;4.30;;;;;;;29.19;47.88;100352.16;1808390;79;21163;-61
2021/07/06 08:10:06;;;;;;;10.50;4.87;;;;;;;29.03;48.84;100355.05;1808420;79;21057;-62
2021/07/06 08:12:35;;;;;;;8.38;4.65;;;;;;;29.30;49.50;100356.76;1808306;79;21057;-61
2021/07/06 08:15:05;;;;;;;6.03;3.95;;;;;;;29.54;48.66;100355.55;1808369;79;21546;-61
2021/07/06 08:17:34;;;;;;;8.78;4.33;;;;;;;29.40;47.39;100364.05;1808405;79;21025;-61
2021/07/06 08:20:04;;;;;;;9.65;4.10;;;;;;;29.44;47.88;100359.42;1808326;78;21042;-61
2021/07/06 08:22:33;;;;;;;9.08;4.40;;;;;;;29.58;47.29;100352.23;1808269;79;21104;-61
2021/07/06 08:25:02;;;;;;;11.08;4.42;;;;;;;29.65;47.17;100366.70;1808522;79;21058;-61
2021/07/06 08:27:30;;;;;;;9.08;4.20;;;;;;;29.67;47.31;100342.63;1808400;78;21057;-61
2021/07/06 08:29:59;;;;;;;7.80;4.42;;;;;;;29.81;47.92;100356.14;1808210;79;21061;-62
2021/07/06 08:32:28;;;;;;;8.95;4.65;;;;;;;30.18;46.96;100354.14;1808383;79;21133;-61
2021/07/06 08:34:57;;;;;;;9.38;4.05;;;;;;;30.28;45.84;100342.92;1808373;79;21545;-61
2021/07/06 08:37:26;;;;;;;8.98;4.95;;;;;;;30.35;45.77;100364.20;1808371;78;21077;-61
2021/07/06 08:39:56;;;;;;;5.17;3.45;;;;;;;29.85;45.72;100355.23;1808396;79;21042;-61
2021/07/06 08:42:26;;;;;;;9.20;4.42;;;;;;;30.00;46.13;100358.70;1808165;79;21144;-61
2021/07/06 08:44:54;;;;;;;6.80;4.35;;;;;;;30.16;46.33;100358.10;1808386;79;21025;-62
2021/07/06 08:47:26;;;;;;;7.58;4.20;;;;;;;30.31;46.40;100356.11;1808340;78;21185;-61
2021/07/06 08:49:56;;;;;;;7.30;3.75;;;;;;;30.44;46.07;100349.13;1808334;79;21046;-61
2021/07/06 08:52:26;;;;;;;7.28;4.28;;;;;;;30.58;45.77;100359.87;1808200;79;21513;-61
2021/07/06 08:54:54;;;;;;;7.70;4.08;;;;;;;30.55;45.62;100358.07;1808195;78;21034;-61
2021/07/06 08:57:23;;;;;;;6.97;3.62;;;;;;;30.45;45.80;100354.86;1815157;79;21552;-61
2021/07/06 08:59:52;;;;;;;8.05;3.95;;;;;;;30.32;44.86;100361.02;1808545;79;21045;-61
2021/07/06 09:02:24;;;;;;;7.28;3.65;;;;;;;30.35;44.70;100368.28;1808658;79;21570;-61
2021/07/06 09:04:55;;;;;;;7.75;5.30;;;;;;;30.43;45.09;100376.78;1808465;79;21017;-61
2021/07/06 09:07:25;;;;;;;6.58;3.77;;;;;;;30.29;45.37;100357.36;1808225;79;21133;-63
2021/07/06 09:09:54;;;;;;;6.33;3.12;;;;;;;30.25;45.12;100355.56;1806426;79;21089;-61
2021/07/06 09:12:25;;;;;;;8.08;3.98;;;;;;;30.24;44.93;100371.52;1808408;79;21148;-61
2021/07/06 09:14:54;;;;;;;6.62;3.67;;;;;;;30.31;45.94;100371.58;1805946;78;21085;-61
2021/07/06 09:17:27;;;;;;;5.30;3.58;;;;;;;30.36;44.59;100388.12;1808246;79;21512;-61
2021/07/06 09:19:56;;;;;;;5.10;3.62;;;;;;;30.33;44.06;100379.86;1808354;79;21049;-62
2021/07/06 09:22:33;;;;;;;5.30;3.65;;;;;;;30.27;44.55;100373.84;1808362;79;21073;-61
2021/07/06 09:25:07;;;;;;;6.03;3.80;;;;;;;30.00;44.34;100376.34;1808351;79;21022;-62
2021/07/06 09:27:41;;;;;;;8.15;4.85;;;;;;;29.71;44.84;100359.66;1808388;79;21073;-61
2021/07/06 09:30:16;;;;;;;9.63;4.05;;;;;;;29.57;46.22;100370.92;1808216;79;21101;-61
2021/07/06 09:32:51;;;;;;;5.70;3.70;;;;;;;29.35;46.36;100371.95;1808353;79;21054;-62
2021/07/06 09:35:23;;;;;;;6.10;4.03;;;;;;;29.07;47.29;100387.02;1808368;79;21057;-61
2021/07/06 09:37:56;;;;;;;;;;;;;;;28.84;48.05;100389.84;1810966;79;21092;-61
2021/07/06 09:40:39;;;;;;;6.20;4.15;;;;;;;29.25;48.58;100386.65;1808373;79;20126;-62
2021/07/06 09:43:17;;;;;;;6.80;4.97;;;;;;;29.47;48.23;100381.23;1808289;79;21178;-61
2021/07/06 09:45:52;;;;;;;5.80;4.25;;;;;;;29.47;48.16;100394.80;1808356;79;21053;-61
2021/07/06 09:48:21;;;;;;;6.72;4.10;;;;;;;29.30;48.61;100366.25;1807326;79;21025;-61
2021/07/06 09:50:49;;;;;;;6.20;3.87;;;;;;;29.39;48.45;100394.93;1808462;79;21045;-61
2021/07/06 09:53:30;;;;;;;9.80;4.85;;;;;;;29.41;48.18;100390.15;1808353;79;21057;-62
2021/07/06 09:55:59;;;;;;;6.97;4.25;;;;;;;29.53;48.79;100387.27;1808456;79;21128;-61
2021/07/06 09:58:28;;;;;;;8.55;4.58;;;;;;;29.56;47.92;100376.01;1808328;79;21148;-61
2021/07/06 10:00:59;;;;;;;6.42;4.08;;;;;;;29.13;46.54;100374.58;1808353;79;21074;-61
2021/07/06 10:03:28;;;;;;;9.08;4.25;;;;;;;29.08;48.25;100387.33;1807472;79;21210;-62
2021/07/06 10:05:57;;;;;;;9.73;3.95;;;;;;;29.37;48.95;100386.98;1808264;79;21879;-61
2021/07/06 10:08:26;;;;;;;5.67;3.55;;;;;;;29.73;48.55;100386.11;1808354;79;21131;-61
2021/07/06 10:10:55;;;;;;;5.33;3.65;;;;;;;29.78;47.78;100405.38;1808453;79;21037;-62
2021/07/06 10:13:25;;;;;;;10.13;4.37;;;;;;;29.47;47.67;100413.78;1808455;79;21009;-61
2021/07/06 10:15:55;;;;;;;5.95;4.03;;;;;;;29.23;48.00;100391.42;1808560;78;21488;-61
2021/07/06 10:18:24;;;;;;;8.18;4.03;;;;;;;29.01;48.47;100395.06;1806458;79;21456;-62
2021/07/06 10:20:54;;;;;;;8.78;3.75;;;;;;;28.95;48.14;100399.37;1808939;79;21116;-61
2021/07/06 10:23:24;;;;;;;7.22;4.58;;;;;;;29.03;47.44;100426.87;1808516;79;21066;-61
2021/07/06 10:25:58;;;;;;;8.90;5.10;;;;;;;28.86;47.95;100422.17;1808386;79;21473;-61
2021/07/06 10:28:29;;;;;;;6.08;4.35;;;;;;;28.86;48.64;100397.27;1808342;79;21104;-61
2021/07/06 10:30:59;;;;;;;5.10;3.12;;;;;;;28.87;48.41;100400.31;1808334;79;21073;-62
2021/07/06 10:33:36;;;;;;;6.25;3.83;;;;;;;28.94;48.45;100435.64;1806910;79;21124;-61
2021/07/06 10:36:05;;;;;;;6.05;4.00;;;;;;;28.70;48.18;100431.34;1808343;79;21131;-61
2021/07/06 10:38:40;;;;;;;11.45;4.20;;;;;;;28.69;48.95;100420.17;1808339;79;21127;-61
2021/07/06 10:41:18;;;;;;;7.00;4.33;;;;;;;28.79;49.64;100396.85;1808481;79;21116;-62
2021/07/06 10:43:49;;;;;;;5.70;3.42;;;;;;;28.66;47.91;100423.23;1808252;79;21025;-62
2021/07/06 10:46:29;;;;;;;7.97;3.83;;;;;;;28.44;48.86;100405.52;1808294;79;21116;-61
2021/07/06 10:49:04;;;;;;;8.20;3.70;;;;;;;28.37;50.57;100428.94;1807472;79;21057;-61
2021/07/06 10:51:38;;;;;;;6.67;3.47;;;;;;;28.44;49.86;100436.66;1808334;79;21017;-61
2021/07/06 10:54:19;;;;;;;6.10;4.45;;;;;;;28.47;49.62;100424.08;1808361;79;21089;-62
2021/07/06 10:56:53;;;;;;;6.25;3.90;;;;;;;28.47;50.14;100425.95;1807391;79;21132;-62
2021/07/06 10:59:35;;;;;;;10.18;4.75;;;;;;;28.15;50.08;100440.66;1808260;79;21089;-61
2021/07/06 11:02:07;;;;;;;7.95;4.97;;;;;;;27.96;51.46;100433.36;1808442;79;21081;-62
2021/07/06 11:04:50;;;;;;;4.78;3.70;;;;;;;27.95;51.74;100428.95;1808329;79;21085;-62
2021/07/06 11:07:32;;;;;;;6.87;3.33;;;;;;;27.83;50.93;100432.58;1808509;79;21136;-61
2021/07/06 11:10:05;;;;;;;7.33;4.50;;;;;;;27.77;50.79;100437.85;1808310;78;21106;-61
2021/07/06 11:12:38;;;;;;;7.90;5.05;;;;;;;27.68;51.78;100429.78;1808233;79;21050;-62
2021/07/06 11:15:09;;;;;;;8.18;4.47;;;;;;;27.61;51.16;100408.55;1806405;79;21127;-62
2021/07/06 11:17:49;;;;;;;7.90;3.52;;;;;;;27.58;52.35;100431.05;1807819;79;21586;-62
2021/07/06 11:20:21;;;;;;;5.75;3.98;;;;;;;27.54;51.60;100426.52;1807051;78;21109;-61
2021/07/06 11:22:54;;;;;;;5.70;4.08;;;;;;;27.39;51.38;100451.25;1806078;79;21069;-61
2021/07/06 11:25:25;;;;;;;10.13;4.28;;;;;;;27.27;52.39;100442.19;1808409;79;21136;-61
2021/07/06 11:28:06;;;;;;;6.05;3.40;;;;;;;27.28;51.82;100447.94;1808319;78;21053;-61
2021/07/06 11:30:53;;;;;;;9.03;4.37;;;;;;;27.27;51.99;100434.59;1808347;79;21514;-61
2021/07/06 11:33:27;;;;;;;8.23;4.97;;;;;;;27.21;53.03;100452.84;1808258;79;21607;-63
2021/07/06 11:36:08;;;;;;;6.40;4.20;;;;;;;27.27;52.45;100448.95;1807361;79;21105;-61
2021/07/06 11:38:42;;;;;;;6.97;4.00;;;;;;;27.34;52.67;100446.39;1808442;79;21133;-62